createdAt,value
2023-11-07T00:00:21.575Z,2.43
2023-11-07T00:03:09.421Z,2.57
2023-11-07T00:05:56.424Z,2.20
2023-11-07T00:08:43.306Z,2.40
2023-11-07T00:11:30.207Z,2.37
2023-11-07T00:14:18.495Z,2.07
2023-11-07T00:17:05.272Z,2.33
2023-11-07T00:19:52.145Z,2.17
2023-11-07T00:22:39.012Z,1.73
2023-11-07T00:25:26.703Z,2.10
2023-11-07T00:28:13.703Z,1.90
2023-11-07T00:31:00.458Z,2.00
2023-11-07T00:33:47.390Z,1.80
2023-11-07T00:36:34.383Z,1.83
2023-11-07T00:39:21.618Z,2.33
2023-11-07T00:42:08.814Z,1.93
2023-11-07T00:44:55.555Z,2.27
2023-11-07T00:47:42.521Z,2.50
2023-11-07T00:50:29.447Z,2.13
2023-11-07T00:53:16.218Z,2.00
2023-11-07T00:56:06.272Z,1.97
2023-11-07T00:58:53.055Z,1.97
2023-11-07T01:01:39.853Z,1.87
2023-11-07T01:04:27.038Z,2.10
2023-11-07T01:07:14.362Z,1.80
2023-11-07T01:10:01.167Z,1.90
2023-11-07T01:12:47.935Z,1.80
2023-11-07T01:15:34.783Z,2.10
2023-11-07T01:18:21.683Z,2.30
2023-11-07T01:21:09.361Z,2.30
2023-11-07T01:23:56.118Z,2.10
2023-11-07T01:26:43.207Z,2.00
2023-11-07T01:29:30.007Z,1.93
2023-11-07T01:32:16.912Z,1.97
2023-11-07T01:35:04.651Z,1.80
2023-11-07T01:37:52.328Z,2.40
2023-11-07T01:40:39.309Z,2.17
2023-11-07T01:43:26.297Z,2.13
2023-11-07T01:46:13.089Z,1.97
2023-11-07T01:48:59.950Z,1.90
2023-11-07T01:51:46.710Z,1.80
2023-11-07T01:54:33.517Z,2.10
2023-11-07T01:57:20.732Z,1.80
2023-11-07T02:00:12.815Z,3.13
2023-11-07T02:03:00.414Z,2.63
2023-11-07T02:05:47.262Z,2.73
2023-11-07T02:08:35.104Z,2.80
2023-11-07T02:11:21.931Z,3.80
2023-11-07T02:14:10.412Z,3.17
2023-11-07T02:16:57.498Z,3.00
2023-11-07T02:19:44.340Z,3.10
2023-11-07T02:22:31.146Z,3.43
2023-11-07T02:25:18.211Z,3.20
2023-11-07T02:28:05.436Z,3.23
2023-11-07T02:30:52.393Z,2.70
2023-11-07T02:33:39.246Z,3.00
2023-11-07T02:36:26.252Z,2.80
2023-11-07T02:39:13.947Z,2.20
2023-11-07T02:42:02.407Z,2.20
2023-11-07T02:44:49.368Z,2.40
2023-11-07T02:47:41.713Z,2.60
2023-11-07T02:50:29.916Z,2.40
2023-11-07T02:53:16.758Z,2.30
2023-11-07T02:56:03.835Z,1.70
2023-11-07T02:58:50.628Z,1.70
2023-11-07T03:01:37.534Z,2.00
2023-11-07T03:04:24.447Z,2.50
2023-11-07T03:07:11.355Z,2.13
2023-11-07T03:09:59.257Z,1.90
2023-11-07T03:12:48.210Z,2.00
2023-11-07T03:15:35.125Z,2.00
2023-11-07T03:18:22.003Z,1.70
2023-11-07T03:21:09.295Z,1.70
2023-11-07T03:23:56.087Z,1.57
2023-11-07T03:26:43.034Z,1.80
2023-11-07T03:29:29.834Z,1.70
2023-11-07T03:32:16.707Z,1.63
2023-11-07T03:35:03.521Z,1.70
2023-11-07T03:37:50.619Z,1.87
2023-11-07T03:40:37.420Z,1.33
2023-11-07T03:43:24.208Z,2.30
2023-11-07T03:46:11.012Z,1.73
2023-11-07T03:48:58.093Z,2.07
2023-11-07T03:51:45.600Z,2.37
2023-11-07T03:54:32.712Z,2.50
2023-11-07T03:57:19.420Z,2.77
2023-11-07T04:00:09.669Z,2.60
2023-11-07T04:02:57.324Z,2.70
2023-11-07T04:05:44.314Z,2.70
2023-11-07T04:08:31.121Z,2.53
2023-11-07T04:11:19.069Z,2.37
2023-11-07T04:14:06.805Z,2.40
2023-11-07T04:16:53.814Z,2.53
2023-11-07T04:19:40.562Z,2.03
2023-11-07T04:22:27.501Z,2.60
2023-11-07T04:25:14.310Z,3.07
2023-11-07T04:28:01.197Z,2.93
2023-11-07T04:30:48.132Z,3.27
2023-11-07T04:33:35.143Z,3.83
2023-11-07T04:36:23.877Z,4.50
2023-11-07T04:39:11.140Z,5.03
2023-11-07T04:41:59.166Z,3.30
2023-11-07T04:44:46.719Z,3.63
2023-11-07T04:47:33.773Z,3.17
2023-11-07T04:50:21.047Z,2.60
2023-11-07T04:53:08.655Z,2.20
2023-11-07T04:55:56.067Z,2.23
2023-11-07T04:58:56.786Z,2.13
2023-11-07T05:01:49.236Z,2.50
2023-11-07T05:04:36.910Z,2.60
2023-11-07T05:07:23.758Z,2.43
2023-11-07T05:10:11.752Z,2.20
2023-11-07T05:12:58.480Z,2.73
2023-11-07T05:15:45.351Z,2.00
2023-11-07T05:18:32.649Z,2.53
2023-11-07T05:21:19.648Z,2.10
2023-11-07T05:24:06.828Z,2.17
2023-11-07T05:26:53.741Z,1.73
2023-11-07T05:29:41.185Z,1.73
2023-11-07T05:32:28.725Z,1.70
2023-11-07T05:35:16.619Z,2.03
2023-11-07T05:38:03.905Z,1.50
2023-11-07T05:40:51.913Z,1.43
2023-11-07T05:43:42.012Z,1.50
2023-11-07T05:46:29.046Z,1.73
2023-11-07T05:49:15.854Z,1.60
2023-11-07T05:52:04.742Z,1.73
2023-11-07T05:54:51.647Z,2.60
2023-11-07T05:57:40.485Z,2.70
2023-11-07T06:00:27.421Z,2.70
2023-11-07T06:03:14.804Z,2.33
2023-11-07T06:06:01.894Z,2.17
2023-11-07T06:08:49.586Z,2.27
2023-11-07T06:11:36.351Z,2.50
2023-11-07T06:14:24.076Z,2.33
2023-11-07T06:17:12.177Z,2.80
2023-11-07T06:19:59.436Z,3.17
2023-11-07T06:22:46.276Z,2.97
2023-11-07T06:25:35.018Z,3.10
2023-11-07T06:28:22.416Z,3.10
2023-11-07T06:31:09.880Z,3.10
2023-11-07T06:33:56.893Z,3.07
2023-11-07T06:36:43.925Z,2.57
2023-11-07T06:39:30.726Z,3.00
2023-11-07T06:42:18.608Z,2.83
2023-11-07T06:45:06.793Z,2.30
2023-11-07T06:47:54.042Z,2.50
2023-11-07T06:50:40.906Z,2.43
2023-11-07T06:53:28.050Z,2.20
2023-11-07T06:56:14.966Z,2.20
2023-11-07T06:59:01.963Z,2.20
2023-11-07T07:01:48.776Z,2.43
2023-11-07T07:04:35.579Z,2.13
2023-11-07T07:07:22.408Z,2.60
2023-11-07T07:10:10.683Z,2.73
2023-11-07T07:12:57.596Z,2.60
2023-11-07T07:15:44.460Z,2.50
2023-11-07T07:18:31.547Z,2.60
2023-11-07T07:21:18.475Z,2.43
2023-11-07T07:24:22.224Z,2.47
2023-11-07T07:27:12.932Z,2.33
2023-11-07T07:30:00.899Z,2.13
2023-11-07T07:32:48.839Z,2.50
2023-11-07T07:35:35.733Z,2.23
2023-11-07T07:38:25.996Z,2.53
2023-11-07T07:41:14.244Z,2.60
2023-11-07T07:44:02.847Z,3.70
2023-11-07T07:46:52.276Z,3.70
2023-11-07T07:49:41.388Z,4.20
2023-11-07T07:52:33.248Z,4.77
2023-11-07T07:55:31.567Z,5.00
2023-11-07T07:58:21.559Z,4.87
2023-11-07T08:01:10.858Z,4.30
2023-11-07T08:03:57.901Z,4.43
2023-11-07T08:06:44.724Z,4.53
2023-11-07T08:09:31.540Z,4.30
2023-11-07T08:12:18.356Z,4.00
2023-11-07T08:15:08.882Z,4.43
2023-11-07T08:17:55.911Z,4.23
2023-11-07T08:20:42.901Z,4.10
2023-11-07T08:23:29.696Z,4.20
2023-11-07T08:26:16.465Z,3.90
2023-11-07T08:29:07.278Z,3.60
2023-11-07T08:31:54.179Z,2.90
2023-11-07T08:34:44.099Z,2.97
2023-11-07T08:37:31.906Z,2.77
2023-11-07T08:40:22.241Z,2.20
2023-11-07T08:43:10.380Z,2.47
2023-11-07T08:45:57.356Z,2.60
2023-11-07T08:48:45.859Z,2.07
2023-11-07T08:51:32.952Z,2.20
2023-11-07T08:54:19.769Z,2.00
2023-11-07T08:57:06.974Z,1.60
2023-11-07T08:59:53.884Z,1.80
2023-11-07T09:02:41.313Z,1.40
2023-11-07T09:05:28.733Z,1.50
2023-11-07T09:08:15.536Z,1.53
2023-11-07T09:11:02.717Z,1.57
2023-11-07T09:13:51.154Z,1.50
2023-11-07T09:16:37.989Z,1.23
2023-11-07T09:19:25.016Z,1.27
2023-11-07T09:22:12.042Z,1.10
2023-11-07T09:24:58.949Z,1.33
2023-11-07T09:27:45.755Z,0.90
2023-11-07T09:30:34.413Z,1.00
2023-11-07T09:33:21.536Z,1.10
2023-11-07T09:36:11.085Z,0.73
2023-11-07T09:38:57.942Z,1.03
2023-11-07T09:41:46.524Z,0.80
2023-11-07T09:44:33.521Z,0.70
2023-11-07T09:47:20.324Z,0.63
2023-11-07T09:50:09.026Z,1.00
2023-11-07T09:52:56.387Z,1.27
2023-11-07T09:55:43.624Z,1.30
2023-11-07T09:58:31.108Z,1.00
2023-11-07T10:01:19.352Z,0.80
2023-11-07T10:04:06.888Z,1.07
2023-11-07T10:06:54.318Z,1.07
2023-11-07T10:09:41.565Z,0.70
2023-11-07T10:12:28.423Z,0.67
2023-11-07T10:15:17.384Z,0.50
2023-11-07T10:18:10.442Z,0.50
2023-11-07T10:20:57.642Z,0.70
2023-11-07T10:23:44.516Z,0.53
2023-11-07T10:26:32.226Z,0.83
2023-11-07T10:29:26.864Z,0.70
2023-11-07T10:32:13.799Z,0.77
2023-11-07T10:35:03.964Z,0.70
2023-11-07T10:37:50.741Z,0.63
2023-11-07T10:40:41.689Z,0.50
2023-11-07T10:43:38.821Z,0.57
2023-11-07T10:46:25.693Z,0.60
2023-11-07T10:49:15.085Z,0.63
2023-11-07T10:52:04.021Z,0.60
2023-11-07T10:54:50.991Z,0.67
2023-11-07T10:57:39.373Z,0.80
2023-11-07T11:00:31.893Z,0.70
2023-11-07T11:03:19.106Z,0.70
2023-11-07T11:06:07.276Z,0.90
2023-11-07T11:08:55.796Z,1.03
2023-11-07T11:11:43.603Z,0.80
2023-11-07T11:14:30.516Z,0.97
2023-11-07T11:17:46.520Z,1.10
2023-11-07T11:21:17.726Z,0.97
2023-11-07T11:24:25.724Z,0.93
2023-11-07T11:27:43.990Z,0.80
2023-11-07T11:30:34.331Z,1.10
2023-11-07T11:33:21.331Z,0.80
2023-11-07T11:36:34.454Z,0.90
2023-11-07T11:39:34.626Z,0.80
2023-11-07T11:42:21.716Z,0.90
2023-11-07T11:45:40.065Z,0.80
2023-11-07T11:49:00.599Z,0.77
2023-11-07T11:51:47.491Z,0.90
2023-11-07T11:54:34.842Z,0.80
2023-11-07T11:57:23.296Z,0.80
2023-11-07T12:00:12.344Z,0.67
2023-11-07T12:03:06.186Z,1.03
2023-11-07T12:06:08.411Z,1.07
2023-11-07T12:08:56.763Z,1.00
2023-11-07T12:11:45.860Z,1.27
2023-11-07T12:14:38.464Z,1.30
2023-11-07T12:17:45.305Z,1.00
2023-11-07T12:20:33.650Z,0.77
2023-11-07T12:23:21.479Z,1.20
2023-11-07T12:26:10.050Z,0.70
2023-11-07T12:28:56.984Z,0.50
2023-11-07T12:31:43.839Z,0.60
2023-11-07T12:34:35.074Z,0.77
2023-11-07T12:37:22.290Z,0.67
2023-11-07T12:40:13.493Z,0.90
2023-11-07T12:43:00.385Z,0.60
2023-11-07T12:45:47.831Z,0.80
2023-11-07T12:48:34.725Z,0.80
2023-11-07T12:51:22.546Z,0.57
2023-11-07T12:54:09.383Z,0.60
2023-11-07T12:56:56.381Z,0.70
2023-11-07T12:59:59.820Z,0.77
2023-11-07T13:02:46.692Z,0.70
2023-11-07T13:05:33.487Z,0.53
2023-11-07T13:08:31.041Z,0.60
2023-11-07T13:11:19.336Z,0.73
2023-11-07T13:14:06.229Z,0.70
2023-11-07T13:16:53.065Z,0.70
2023-11-07T13:19:40.110Z,1.10
2023-11-07T13:22:26.968Z,0.67
2023-11-07T13:25:13.885Z,0.90
2023-11-07T13:28:00.638Z,0.90
2023-11-07T13:30:49.314Z,1.37
2023-11-07T13:33:36.510Z,1.07
2023-11-07T13:36:23.551Z,1.13
2023-11-07T13:39:23.710Z,0.80
2023-11-07T13:42:10.683Z,0.80
2023-11-07T13:44:57.471Z,0.80
2023-11-07T13:47:45.422Z,0.83
2023-11-07T13:50:32.673Z,0.87
2023-11-07T13:53:20.392Z,0.87
2023-11-07T13:56:09.838Z,0.90
2023-11-07T13:58:58.027Z,0.87
2023-11-07T14:01:44.882Z,0.83
2023-11-07T14:04:31.931Z,0.83
2023-11-07T14:07:18.875Z,1.00
2023-11-07T14:10:11.467Z,1.10
2023-11-07T14:12:58.659Z,1.47
2023-11-07T14:15:46.994Z,1.93
2023-11-07T14:18:33.851Z,1.30
2023-11-07T14:21:21.663Z,1.30
2023-11-07T14:24:09.020Z,1.20
2023-11-07T14:26:55.991Z,1.27
2023-11-07T14:30:01.396Z,1.40
2023-11-07T14:32:49.866Z,1.30
2023-11-07T14:35:36.692Z,1.30
2023-11-07T14:38:24.471Z,1.50
2023-11-07T14:41:11.265Z,1.60
2023-11-07T14:43:58.137Z,1.20
2023-11-07T14:46:46.809Z,1.60
2023-11-07T14:49:34.085Z,1.50
2023-11-07T14:52:21.069Z,1.60
2023-11-07T14:55:11.567Z,1.37
2023-11-07T14:57:58.390Z,2.10
2023-11-07T15:00:45.253Z,2.30
2023-11-07T15:03:32.517Z,2.97
2023-11-07T15:06:19.516Z,2.40
2023-11-07T15:09:08.283Z,3.00
2023-11-07T15:11:55.113Z,2.97
2023-11-07T15:14:42.017Z,3.20
2023-11-07T15:17:30.561Z,2.63
2023-11-07T15:20:17.829Z,3.17
2023-11-07T15:23:04.717Z,3.10
2023-11-07T15:25:51.652Z,2.93
2023-11-07T15:28:38.476Z,2.70
2023-11-07T15:31:29.617Z,2.80
2023-11-07T15:34:17.316Z,2.80
2023-11-07T15:37:06.244Z,2.97
2023-11-07T15:39:53.039Z,2.60
2023-11-07T15:42:46.277Z,2.57
2023-11-07T15:45:33.867Z,2.60
2023-11-07T15:48:21.129Z,2.87
2023-11-07T15:51:07.986Z,2.53
2023-11-07T15:53:54.890Z,2.50
2023-11-07T15:56:47.331Z,2.73
2023-11-07T15:59:34.272Z,3.17
2023-11-07T16:02:21.049Z,3.20
2023-11-07T16:05:11.568Z,2.83
2023-11-07T16:07:59.196Z,3.00
2023-11-07T16:10:46.432Z,3.50
2023-11-07T16:13:33.534Z,3.20
2023-11-07T16:16:21.310Z,3.10
2023-11-07T16:19:08.261Z,2.93
2023-11-07T16:21:55.884Z,2.97
2023-11-07T16:24:42.703Z,2.80
2023-11-07T16:27:29.517Z,2.73
2023-11-07T16:30:18.679Z,3.20
2023-11-07T16:33:07.871Z,3.30
2023-11-07T16:35:55.110Z,3.67
2023-11-07T16:38:41.896Z,3.53
2023-11-07T16:41:28.723Z,3.13
2023-11-07T16:44:15.815Z,3.07
2023-11-07T16:47:03.068Z,3.10
2023-11-07T16:49:52.879Z,2.63
2023-11-07T16:52:41.080Z,2.70
2023-11-07T16:55:28.255Z,3.10
2023-11-07T16:58:15.323Z,2.77
2023-11-07T17:01:02.299Z,2.60
2023-11-07T17:03:49.545Z,3.07
2023-11-07T17:06:36.561Z,3.00
2023-11-07T17:09:24.157Z,2.83
2023-11-07T17:12:11.068Z,2.93
2023-11-07T17:14:57.895Z,3.20
2023-11-07T17:17:46.661Z,3.80
2023-11-07T17:20:33.764Z,4.87
2023-11-07T17:23:22.429Z,5.37
2023-11-07T17:26:09.159Z,5.73
2023-11-07T17:28:57.362Z,6.27
2023-11-07T17:31:44.139Z,6.30
2023-11-07T17:34:31.049Z,6.43
2023-11-07T17:37:17.823Z,5.70
2023-11-07T17:40:09.692Z,5.40
2023-11-07T17:42:56.532Z,4.67
2023-11-07T17:45:43.517Z,4.77
2023-11-07T17:48:30.553Z,4.50
2023-11-07T17:51:23.457Z,4.00
2023-11-07T17:54:10.690Z,3.90
2023-11-07T17:56:57.608Z,3.43
2023-11-07T17:59:46.061Z,3.70
2023-11-07T18:02:32.863Z,3.30
2023-11-07T18:05:19.794Z,3.63
2023-11-07T18:08:07.310Z,3.10
2023-11-07T18:11:02.187Z,2.87
2023-11-07T18:13:49.294Z,2.77
2023-11-07T18:16:36.155Z,3.03
2023-11-07T18:19:24.498Z,3.30
2023-11-07T18:22:11.581Z,5.07
2023-11-07T18:25:00.317Z,6.20
2023-11-07T18:27:47.251Z,6.27
2023-11-07T18:30:34.155Z,6.53
2023-11-07T18:33:23.951Z,7.00
2023-11-07T18:36:11.233Z,7.17
2023-11-07T18:38:58.638Z,6.83
2023-11-07T18:41:47.692Z,7.23
2023-11-07T18:44:37.559Z,6.93
2023-11-07T18:47:24.527Z,7.63
2023-11-07T18:50:12.727Z,6.43
2023-11-07T18:52:59.677Z,6.43
2023-11-07T18:55:47.696Z,6.03
2023-11-07T18:58:34.734Z,5.73
2023-11-07T19:01:23.805Z,5.60
2023-11-07T19:04:11.028Z,4.80
2023-11-07T19:06:58.027Z,4.77
2023-11-07T19:09:46.443Z,5.13
2023-11-07T19:12:33.233Z,3.97
2023-11-07T19:15:20.810Z,4.17
2023-11-07T19:18:07.879Z,4.20
2023-11-07T19:20:55.823Z,4.30
2023-11-07T19:23:42.571Z,4.43
2023-11-07T19:26:29.397Z,4.90
2023-11-07T19:29:17.684Z,5.07
2023-11-07T19:32:04.894Z,5.20
2023-11-07T19:34:52.048Z,5.33
2023-11-07T19:37:40.071Z,4.50
2023-11-07T19:40:27.848Z,4.40
2023-11-07T19:43:16.536Z,4.20
2023-11-07T19:46:05.560Z,4.27
2023-11-07T19:48:53.016Z,4.60
2023-11-07T19:51:41.211Z,4.07
2023-11-07T19:54:28.373Z,3.70
2023-11-07T19:57:16.099Z,4.10
2023-11-07T20:00:03.311Z,3.90
2023-11-07T20:02:50.574Z,3.80
2023-11-07T20:05:37.517Z,3.97
2023-11-07T20:08:29.786Z,3.40
2023-11-07T20:11:17.490Z,3.47
2023-11-07T20:14:04.341Z,3.17
2023-11-07T20:16:51.363Z,3.73
2023-11-07T20:19:38.905Z,3.03
2023-11-07T20:22:25.817Z,3.70
2023-11-07T20:25:12.842Z,2.77
2023-11-07T20:28:00.029Z,3.00
2023-11-07T20:30:46.836Z,3.40
2023-11-07T20:33:41.729Z,3.10
2023-11-07T20:36:34.029Z,3.40
2023-11-07T20:39:20.912Z,3.40
2023-11-07T20:42:07.984Z,3.83
2023-11-07T20:45:01.174Z,4.10
2023-11-07T20:47:54.941Z,4.50
2023-11-07T20:50:42.943Z,4.70
2023-11-07T20:53:32.770Z,4.60
2023-11-07T20:56:23.437Z,4.60
2023-11-07T20:59:13.335Z,4.80
2023-11-07T21:02:00.197Z,4.70
2023-11-07T21:04:48.883Z,4.60
2023-11-07T21:07:36.608Z,4.17
2023-11-07T21:10:23.463Z,4.67
2023-11-07T21:13:10.255Z,4.47
2023-11-07T21:15:57.039Z,4.60
2023-11-07T21:18:45.566Z,3.40
2023-11-07T21:21:32.507Z,3.73
2023-11-07T21:24:19.702Z,2.97
2023-11-07T21:27:06.600Z,3.17
2023-11-07T21:29:53.431Z,2.80
2023-11-07T21:32:43.167Z,2.67
2023-11-07T21:35:29.991Z,2.80
2023-11-07T21:38:16.801Z,2.77
2023-11-07T21:41:03.996Z,2.70
2023-11-07T21:43:50.747Z,2.87
2023-11-07T21:46:38.174Z,2.63
2023-11-07T21:49:25.034Z,2.83
2023-11-07T21:52:12.246Z,2.70
2023-11-07T21:54:59.041Z,3.13
2023-11-07T21:57:45.860Z,2.77
2023-11-07T22:00:33.564Z,2.87
2023-11-07T22:03:20.972Z,3.17
2023-11-07T22:06:08.069Z,3.40
2023-11-07T22:08:54.879Z,3.50
2023-11-07T22:11:41.660Z,3.00
2023-11-07T22:14:28.608Z,3.60
2023-11-07T22:17:15.458Z,3.13
2023-11-07T22:20:03.839Z,3.40
2023-11-07T22:22:50.596Z,3.67
2023-11-07T22:25:37.617Z,3.40
2023-11-07T22:28:24.429Z,3.80
2023-11-07T22:31:11.873Z,4.03
2023-11-07T22:33:59.630Z,3.53
2023-11-07T22:36:46.538Z,4.30
2023-11-07T22:39:33.561Z,4.10
2023-11-07T22:42:20.586Z,4.17
2023-11-07T22:45:08.689Z,3.70
2023-11-07T22:47:55.520Z,4.00
2023-11-07T22:50:42.365Z,4.20
2023-11-07T22:53:29.373Z,4.03
2023-11-07T22:56:16.168Z,4.10
2023-11-07T22:59:03.064Z,4.00
2023-11-07T23:01:50.375Z,3.57
2023-11-07T23:04:37.287Z,4.13
2023-11-07T23:07:24.217Z,4.40
2023-11-07T23:10:11.789Z,4.23
2023-11-07T23:12:58.978Z,4.20
2023-11-07T23:15:48.745Z,3.57
2023-11-07T23:18:35.614Z,4.20
2023-11-07T23:21:22.677Z,3.67
2023-11-07T23:24:10.185Z,3.53
2023-11-07T23:26:57.107Z,3.07
2023-11-07T23:29:45.282Z,3.40
2023-11-07T23:32:32.446Z,2.47
2023-11-07T23:35:19.596Z,2.60
2023-11-07T23:38:06.533Z,2.30
2023-11-07T23:40:53.371Z,2.20
2023-11-07T23:43:40.270Z,2.30
2023-11-07T23:46:27.920Z,2.00
2023-11-07T23:49:15.444Z,1.97
2023-11-07T23:52:04.755Z,2.10
2023-11-07T23:54:51.509Z,1.93
2023-11-07T23:57:39.189Z,1.63
